sensor_id;sensor_type;location;lat;lon;timestamp;P1;durP1;ratioP1;P2;durP2;ratioP2
17251;SDS011;8742;51.716;8.790;2022-10-31T00:00:04;8.27;;;4.70;;
17251;SDS011;8742;51.716;8.790;2022-10-31T00:02:33;10.83;;;4.80;;
17251;SDS011;8742;51.716;8.790;2022-10-31T00:05:00;11.00;;;5.27;;
17251;SDS011;8742;51.716;8.790;2022-10-31T00:07:28;11.17;;;4.37;;
17251;SDS011;8742;51.716;8.790;2022-10-31T00:09:55;15.00;;;5.23;;
17251;SDS011;8742;51.716;8.790;2022-10-31T00:12:21;9.80;;;4.10;;
17251;SDS011;8742;51.716;8.790;2022-10-31T00:14:48;10.77;;;4.70;;
17251;SDS011;8742;51.716;8.790;2022-10-31T00:17:15;9.67;;;4.37;;
17251;SDS011;8742;51.716;8.790;2022-10-31T00:19:42;13.97;;;4.73;;
17251;SDS011;8742;51.716;8.790;2022-10-31T00:22:09;17.03;;;5.00;;
17251;SDS011;8742;51.716;8.790;2022-10-31T00:24:37;16.03;;;5.00;;
17251;SDS011;8742;51.716;8.790;2022-10-31T00:27:04;13.40;;;4.93;;
17251;SDS011;8742;51.716;8.790;2022-10-31T00:29:30;8.17;;;4.50;;
17251;SDS011;8742;51.716;8.790;2022-10-31T00:31:57;8.63;;;4.53;;
17251;SDS011;8742;51.716;8.790;2022-10-31T00:34:24;12.70;;;4.80;;
17251;SDS011;8742;51.716;8.790;2022-10-31T00:36:51;14.40;;;5.03;;
17251;SDS011;8742;51.716;8.790;2022-10-31T00:39:17;18.23;;;5.17;;
17251;SDS011;8742;51.716;8.790;2022-10-31T00:41:46;18.50;;;6.00;;
17251;SDS011;8742;51.716;8.790;2022-10-31T00:44:12;8.60;;;4.67;;
17251;SDS011;8742;51.716;8.790;2022-10-31T00:46:39;14.53;;;5.20;;
17251;SDS011;8742;51.716;8.790;2022-10-31T00:49:06;20.07;;;5.33;;
17251;SDS011;8742;51.716;8.790;2022-10-31T00:51:33;11.13;;;5.07;;
17251;SDS011;8742;51.716;8.790;2022-10-31T00:54:00;16.33;;;5.93;;
17251;SDS011;8742;51.716;8.790;2022-10-31T00:56:26;11.43;;;5.30;;
17251;SDS011;8742;51.716;8.790;2022-10-31T00:58:54;10.47;;;5.37;;
17251;SDS011;8742;51.716;8.790;2022-10-31T01:01:21;12.53;;;5.00;;
17251;SDS011;8742;51.716;8.790;2022-10-31T01:03:48;13.10;;;5.10;;
17251;SDS011;8742;51.716;8.790;2022-10-31T01:06:15;16.07;;;5.50;;
17251;SDS011;8742;51.716;8.790;2022-10-31T01:08:42;12.60;;;5.50;;
17251;SDS011;8742;51.716;8.790;2022-10-31T01:11:10;8.83;;;5.47;;
17251;SDS011;8742;51.716;8.790;2022-10-31T01:13:40;11.20;;;6.03;;
17251;SDS011;8742;51.716;8.790;2022-10-31T01:16:10;16.47;;;5.70;;
17251;SDS011;8742;51.716;8.790;2022-10-31T01:18:38;14.77;;;5.73;;
17251;SDS011;8742;51.716;8.790;2022-10-31T01:21:05;18.43;;;6.30;;
17251;SDS011;8742;51.716;8.790;2022-10-31T01:23:34;11.90;;;5.70;;
17251;SDS011;8742;51.716;8.790;2022-10-31T01:26:03;22.50;;;6.20;;
17251;SDS011;8742;51.716;8.790;2022-10-31T01:28:33;14.73;;;5.73;;
17251;SDS011;8742;51.716;8.790;2022-10-31T01:31:02;16.47;;;5.87;;
17251;SDS011;8742;51.716;8.790;2022-10-31T01:33:31;19.17;;;6.10;;
17251;SDS011;8742;51.716;8.790;2022-10-31T01:35:58;17.10;;;6.20;;
17251;SDS011;8742;51.716;8.790;2022-10-31T01:38:25;13.83;;;6.20;;
17251;SDS011;8742;51.716;8.790;2022-10-31T01:40:52;29.23;;;6.27;;
17251;SDS011;8742;51.716;8.790;2022-10-31T01:43:19;13.70;;;5.83;;
17251;SDS011;8742;51.716;8.790;2022-10-31T01:45:48;18.50;;;6.53;;
17251;SDS011;8742;51.716;8.790;2022-10-31T01:48:19;15.93;;;6.27;;
17251;SDS011;8742;51.716;8.790;2022-10-31T01:50:52;14.10;;;6.33;;
17251;SDS011;8742;51.716;8.790;2022-10-31T01:53:21;19.07;;;6.27;;
17251;SDS011;8742;51.716;8.790;2022-10-31T01:55:49;13.63;;;7.00;;
17251;SDS011;8742;51.716;8.790;2022-10-31T01:58:19;14.93;;;6.53;;
17251;SDS011;8742;51.716;8.790;2022-10-31T02:00:48;14.63;;;6.60;;
17251;SDS011;8742;51.716;8.790;2022-10-31T02:03:18;18.47;;;7.43;;
17251;SDS011;8742;51.716;8.790;2022-10-31T02:05:48;16.43;;;6.83;;
17251;SDS011;8742;51.716;8.790;2022-10-31T02:08:18;19.50;;;7.30;;
17251;SDS011;8742;51.716;8.790;2022-10-31T02:10:49;19.00;;;7.40;;
17251;SDS011;8742;51.716;8.790;2022-10-31T02:13:16;16.53;;;6.73;;
17251;SDS011;8742;51.716;8.790;2022-10-31T02:15:45;16.80;;;6.87;;
17251;SDS011;8742;51.716;8.790;2022-10-31T02:18:15;14.53;;;6.77;;
17251;SDS011;8742;51.716;8.790;2022-10-31T02:20:46;14.67;;;7.00;;
17251;SDS011;8742;51.716;8.790;2022-10-31T02:23:36;20.30;;;8.00;;
17251;SDS011;8742;51.716;8.790;2022-10-31T02:26:41;20.40;;;7.60;;
17251;SDS011;8742;51.716;8.790;2022-10-31T02:29:26;11.67;;;7.00;;
17251;SDS011;8742;51.716;8.790;2022-10-31T02:32:24;17.23;;;7.57;;
17251;SDS011;8742;51.716;8.790;2022-10-31T02:34:57;13.47;;;8.00;;
17251;SDS011;8742;51.716;8.790;2022-10-31T02:37:33;13.73;;;7.27;;
17251;SDS011;8742;51.716;8.790;2022-10-31T02:40:05;13.73;;;7.93;;
17251;SDS011;8742;51.716;8.790;2022-10-31T02:42:41;22.93;;;7.83;;
17251;SDS011;8742;51.716;8.790;2022-10-31T02:45:16;20.27;;;8.27;;
17251;SDS011;8742;51.716;8.790;2022-10-31T02:47:50;17.60;;;7.87;;
17251;SDS011;8742;51.716;8.790;2022-10-31T02:50:22;21.73;;;7.83;;
17251;SDS011;8742;51.716;8.790;2022-10-31T02:52:52;17.53;;;8.67;;
17251;SDS011;8742;51.716;8.790;2022-10-31T02:58:17;20.97;;;9.20;;
17251;SDS011;8742;51.716;8.790;2022-10-31T03:00:53;24.50;;;10.17;;
17251;SDS011;8742;51.716;8.790;2022-10-31T03:03:39;22.20;;;9.93;;
17251;SDS011;8742;51.716;8.790;2022-10-31T03:06:16;25.67;;;11.43;;
17251;SDS011;8742;51.716;8.790;2022-10-31T03:08:49;25.13;;;10.77;;
17251;SDS011;8742;51.716;8.790;2022-10-31T03:11:22;28.83;;;11.27;;
17251;SDS011;8742;51.716;8.790;2022-10-31T03:13:54;20.63;;;10.87;;
17251;SDS011;8742;51.716;8.790;2022-10-31T03:16:27;23.00;;;10.97;;
17251;SDS011;8742;51.716;8.790;2022-10-31T03:19:03;23.63;;;9.93;;
17251;SDS011;8742;51.716;8.790;2022-10-31T03:21:34;22.10;;;10.17;;
17251;SDS011;8742;51.716;8.790;2022-10-31T03:24:05;26.03;;;9.70;;
17251;SDS011;8742;51.716;8.790;2022-10-31T03:26:34;22.23;;;11.53;;
17251;SDS011;8742;51.716;8.790;2022-10-31T03:29:04;25.70;;;11.00;;
17251;SDS011;8742;51.716;8.790;2022-10-31T03:31:33;19.60;;;10.13;;
17251;SDS011;8742;51.716;8.790;2022-10-31T03:34:06;22.13;;;10.37;;
17251;SDS011;8742;51.716;8.790;2022-10-31T03:36:35;24.30;;;10.07;;
17251;SDS011;8742;51.716;8.790;2022-10-31T03:39:06;17.77;;;10.17;;
17251;SDS011;8742;51.716;8.790;2022-10-31T03:41:38;32.27;;;11.40;;
17251;SDS011;8742;51.716;8.790;2022-10-31T03:44:08;23.20;;;10.77;;
17251;SDS011;8742;51.716;8.790;2022-10-31T03:46:38;23.03;;;11.33;;
17251;SDS011;8742;51.716;8.790;2022-10-31T03:49:06;26.33;;;11.17;;
17251;SDS011;8742;51.716;8.790;2022-10-31T03:51:35;23.57;;;10.57;;
17251;SDS011;8742;51.716;8.790;2022-10-31T03:54:08;25.47;;;10.40;;
17251;SDS011;8742;51.716;8.790;2022-10-31T03:56:40;26.13;;;11.07;;
17251;SDS011;8742;51.716;8.790;2022-10-31T03:59:19;29.50;;;11.57;;
17251;SDS011;8742;51.716;8.790;2022-10-31T04:01:51;20.17;;;11.37;;
17251;SDS011;8742;51.716;8.790;2022-10-31T04:04:21;25.67;;;12.93;;
17251;SDS011;8742;51.716;8.790;2022-10-31T04:06:48;27.07;;;12.73;;
17251;SDS011;8742;51.716;8.790;2022-10-31T04:09:17;34.03;;;13.37;;
17251;SDS011;8742;51.716;8.790;2022-10-31T04:11:45;30.83;;;12.23;;
17251;SDS011;8742;51.716;8.790;2022-10-31T04:14:18;29.20;;;13.03;;
17251;SDS011;8742;51.716;8.790;2022-10-31T04:16:45;29.53;;;12.77;;
17251;SDS011;8742;51.716;8.790;2022-10-31T04:19:13;27.17;;;12.43;;
17251;SDS011;8742;51.716;8.790;2022-10-31T04:21:42;27.97;;;12.97;;
17251;SDS011;8742;51.716;8.790;2022-10-31T04:24:09;31.97;;;13.33;;
17251;SDS011;8742;51.716;8.790;2022-10-31T04:26:36;26.33;;;12.67;;
17251;SDS011;8742;51.716;8.790;2022-10-31T04:29:03;32.57;;;13.27;;
17251;SDS011;8742;51.716;8.790;2022-10-31T04:31:30;29.37;;;13.27;;
17251;SDS011;8742;51.716;8.790;2022-10-31T04:33:56;25.93;;;12.40;;
17251;SDS011;8742;51.716;8.790;2022-10-31T04:36:23;24.40;;;12.33;;
17251;SDS011;8742;51.716;8.790;2022-10-31T04:38:51;27.53;;;13.03;;
17251;SDS011;8742;51.716;8.790;2022-10-31T04:41:18;24.90;;;12.20;;
17251;SDS011;8742;51.716;8.790;2022-10-31T04:43:45;27.07;;;13.27;;
17251;SDS011;8742;51.716;8.790;2022-10-31T04:46:12;23.67;;;11.93;;
17251;SDS011;8742;51.716;8.790;2022-10-31T04:48:39;25.00;;;12.60;;
17251;SDS011;8742;51.716;8.790;2022-10-31T04:51:05;23.93;;;12.70;;
17251;SDS011;8742;51.716;8.790;2022-10-31T04:53:32;28.67;;;12.63;;
17251;SDS011;8742;51.716;8.790;2022-10-31T04:56:00;26.13;;;13.50;;
17251;SDS011;8742;51.716;8.790;2022-10-31T04:58:27;33.10;;;14.40;;
17251;SDS011;8742;51.716;8.790;2022-10-31T05:00:55;33.83;;;13.90;;
17251;SDS011;8742;51.716;8.790;2022-10-31T05:03:22;35.47;;;15.47;;
17251;SDS011;8742;51.716;8.790;2022-10-31T05:05:49;35.73;;;15.13;;
17251;SDS011;8742;51.716;8.790;2022-10-31T05:08:16;30.23;;;14.50;;
17251;SDS011;8742;51.716;8.790;2022-10-31T05:10:42;33.40;;;18.07;;
17251;SDS011;8742;51.716;8.790;2022-10-31T05:13:11;41.37;;;17.23;;
17251;SDS011;8742;51.716;8.790;2022-10-31T05:15:39;37.67;;;18.03;;
17251;SDS011;8742;51.716;8.790;2022-10-31T05:18:06;35.73;;;17.73;;
17251;SDS011;8742;51.716;8.790;2022-10-31T05:20:33;35.37;;;17.73;;
17251;SDS011;8742;51.716;8.790;2022-10-31T05:23:00;35.53;;;18.17;;
17251;SDS011;8742;51.716;8.790;2022-10-31T05:25:28;39.77;;;18.37;;
17251;SDS011;8742;51.716;8.790;2022-10-31T05:27:55;34.17;;;18.20;;
17251;SDS011;8742;51.716;8.790;2022-10-31T05:30:25;37.57;;;17.97;;
17251;SDS011;8742;51.716;8.790;2022-10-31T05:32:53;37.20;;;18.37;;
17251;SDS011;8742;51.716;8.790;2022-10-31T05:35:21;44.33;;;20.03;;
17251;SDS011;8742;51.716;8.790;2022-10-31T05:37:49;45.47;;;20.37;;
17251;SDS011;8742;51.716;8.790;2022-10-31T05:40:16;44.13;;;20.37;;
17251;SDS011;8742;51.716;8.790;2022-10-31T05:42:44;60.90;;;21.57;;
17251;SDS011;8742;51.716;8.790;2022-10-31T05:45:12;48.20;;;21.37;;
17251;SDS011;8742;51.716;8.790;2022-10-31T05:47:42;40.47;;;20.30;;
17251;SDS011;8742;51.716;8.790;2022-10-31T05:50:15;43.87;;;20.30;;
17251;SDS011;8742;51.716;8.790;2022-10-31T05:52:42;50.90;;;21.27;;
17251;SDS011;8742;51.716;8.790;2022-10-31T05:55:09;49.53;;;22.23;;
17251;SDS011;8742;51.716;8.790;2022-10-31T05:57:36;50.50;;;22.60;;
17251;SDS011;8742;51.716;8.790;2022-10-31T06:00:03;52.37;;;22.83;;
17251;SDS011;8742;51.716;8.790;2022-10-31T06:02:31;51.37;;;23.27;;
17251;SDS011;8742;51.716;8.790;2022-10-31T06:05:00;50.53;;;23.73;;
17251;SDS011;8742;51.716;8.790;2022-10-31T06:07:31;57.67;;;24.10;;
17251;SDS011;8742;51.716;8.790;2022-10-31T06:09:58;58.77;;;24.53;;
17251;SDS011;8742;51.716;8.790;2022-10-31T06:12:25;54.33;;;25.10;;
17251;SDS011;8742;51.716;8.790;2022-10-31T06:14:52;54.23;;;23.13;;
17251;SDS011;8742;51.716;8.790;2022-10-31T06:17:18;53.03;;;24.73;;
17251;SDS011;8742;51.716;8.790;2022-10-31T06:19:45;49.80;;;24.13;;
17251;SDS011;8742;51.716;8.790;2022-10-31T06:22:13;52.63;;;24.30;;
17251;SDS011;8742;51.716;8.790;2022-10-31T06:24:40;46.97;;;22.97;;
17251;SDS011;8742;51.716;8.790;2022-10-31T06:27:07;40.90;;;22.17;;
17251;SDS011;8742;51.716;8.790;2022-10-31T06:29:34;53.90;;;23.87;;
17251;SDS011;8742;51.716;8.790;2022-10-31T06:32:01;57.60;;;25.73;;
17251;SDS011;8742;51.716;8.790;2022-10-31T06:34:27;56.53;;;27.50;;
17251;SDS011;8742;51.716;8.790;2022-10-31T06:36:54;54.57;;;26.63;;
17251;SDS011;8742;51.716;8.790;2022-10-31T06:39:22;59.47;;;28.27;;
17251;SDS011;8742;51.716;8.790;2022-10-31T06:41:49;57.03;;;26.10;;
17251;SDS011;8742;51.716;8.790;2022-10-31T06:44:16;53.77;;;27.57;;
17251;SDS011;8742;51.716;8.790;2022-10-31T06:46:43;60.20;;;27.33;;
17251;SDS011;8742;51.716;8.790;2022-10-31T06:49:11;58.27;;;27.40;;
17251;SDS011;8742;51.716;8.790;2022-10-31T06:51:38;61.50;;;25.93;;
17251;SDS011;8742;51.716;8.790;2022-10-31T06:54:05;57.97;;;26.20;;
17251;SDS011;8742;51.716;8.790;2022-10-31T06:56:33;56.57;;;26.40;;
17251;SDS011;8742;51.716;8.790;2022-10-31T06:59:00;57.63;;;25.00;;
17251;SDS011;8742;51.716;8.790;2022-10-31T07:01:27;45.50;;;22.63;;
17251;SDS011;8742;51.716;8.790;2022-10-31T07:03:54;55.67;;;26.40;;
17251;SDS011;8742;51.716;8.790;2022-10-31T07:06:20;43.83;;;22.13;;
17251;SDS011;8742;51.716;8.790;2022-10-31T07:08:47;43.33;;;21.70;;
17251;SDS011;8742;51.716;8.790;2022-10-31T07:11:14;42.60;;;21.33;;
17251;SDS011;8742;51.716;8.790;2022-10-31T07:13:42;48.70;;;22.77;;
17251;SDS011;8742;51.716;8.790;2022-10-31T07:16:09;44.90;;;21.03;;
17251;SDS011;8742;51.716;8.790;2022-10-31T07:18:38;43.17;;;22.87;;
17251;SDS011;8742;51.716;8.790;2022-10-31T07:21:05;49.57;;;23.03;;
17251;SDS011;8742;51.716;8.790;2022-10-31T07:23:32;43.87;;;23.13;;
17251;SDS011;8742;51.716;8.790;2022-10-31T07:25:59;46.47;;;23.20;;
17251;SDS011;8742;51.716;8.790;2022-10-31T07:28:26;56.30;;;24.13;;
17251;SDS011;8742;51.716;8.790;2022-10-31T07:30:55;48.77;;;22.83;;
17251;SDS011;8742;51.716;8.790;2022-10-31T07:33:23;43.73;;;22.20;;
17251;SDS011;8742;51.716;8.790;2022-10-31T07:35:51;51.90;;;25.10;;
17251;SDS011;8742;51.716;8.790;2022-10-31T07:38:18;58.67;;;26.50;;
17251;SDS011;8742;51.716;8.790;2022-10-31T07:40:48;48.03;;;24.13;;
17251;SDS011;8742;51.716;8.790;2022-10-31T07:43:16;56.80;;;25.03;;
17251;SDS011;8742;51.716;8.790;2022-10-31T07:45:42;45.97;;;24.93;;
17251;SDS011;8742;51.716;8.790;2022-10-31T07:48:11;54.03;;;25.80;;
17251;SDS011;8742;51.716;8.790;2022-10-31T07:50:37;45.87;;;24.43;;
17251;SDS011;8742;51.716;8.790;2022-10-31T07:53:05;43.57;;;24.60;;
17251;SDS011;8742;51.716;8.790;2022-10-31T07:55:33;47.07;;;24.13;;
17251;SDS011;8742;51.716;8.790;2022-10-31T07:58:01;54.43;;;25.97;;
17251;SDS011;8742;51.716;8.790;2022-10-31T08:00:30;53.47;;;24.90;;
17251;SDS011;8742;51.716;8.790;2022-10-31T08:02:58;47.77;;;24.07;;
17251;SDS011;8742;51.716;8.790;2022-10-31T08:05:27;50.57;;;24.97;;
17251;SDS011;8742;51.716;8.790;2022-10-31T08:07:53;48.80;;;24.00;;
17251;SDS011;8742;51.716;8.790;2022-10-31T08:10:20;49.10;;;23.20;;
17251;SDS011;8742;51.716;8.790;2022-10-31T08:12:54;48.63;;;23.80;;
17251;SDS011;8742;51.716;8.790;2022-10-31T08:15:21;45.77;;;24.57;;
17251;SDS011;8742;51.716;8.790;2022-10-31T08:17:48;43.73;;;23.63;;
17251;SDS011;8742;51.716;8.790;2022-10-31T08:20:15;56.70;;;23.93;;
17251;SDS011;8742;51.716;8.790;2022-10-31T08:22:43;48.60;;;23.30;;
17251;SDS011;8742;51.716;8.790;2022-10-31T08:25:19;42.40;;;22.33;;
17251;SDS011;8742;51.716;8.790;2022-10-31T08:27:48;38.80;;;22.23;;
17251;SDS011;8742;51.716;8.790;2022-10-31T08:30:15;49.27;;;23.37;;
17251;SDS011;8742;51.716;8.790;2022-10-31T08:32:42;44.27;;;22.83;;
17251;SDS011;8742;51.716;8.790;2022-10-31T08:35:09;39.40;;;23.73;;
17251;SDS011;8742;51.716;8.790;2022-10-31T08:37:36;44.43;;;22.63;;
17251;SDS011;8742;51.716;8.790;2022-10-31T08:40:05;41.73;;;22.67;;
17251;SDS011;8742;51.716;8.790;2022-10-31T08:42:32;43.43;;;23.10;;
17251;SDS011;8742;51.716;8.790;2022-10-31T08:44:59;41.40;;;22.60;;
17251;SDS011;8742;51.716;8.790;2022-10-31T08:47:26;42.97;;;23.23;;
17251;SDS011;8742;51.716;8.790;2022-10-31T08:49:53;41.80;;;21.93;;
17251;SDS011;8742;51.716;8.790;2022-10-31T08:52:22;43.17;;;22.20;;
17251;SDS011;8742;51.716;8.790;2022-10-31T08:54:50;44.13;;;21.50;;
17251;SDS011;8742;51.716;8.790;2022-10-31T08:57:18;37.80;;;22.17;;
17251;SDS011;8742;51.716;8.790;2022-10-31T08:59:45;32.60;;;19.63;;
17251;SDS011;8742;51.716;8.790;2022-10-31T09:02:11;41.10;;;20.53;;
17251;SDS011;8742;51.716;8.790;2022-10-31T09:04:38;31.57;;;19.13;;
17251;SDS011;8742;51.716;8.790;2022-10-31T09:07:05;38.43;;;20.03;;
17251;SDS011;8742;51.716;8.790;2022-10-31T09:09:32;30.60;;;18.70;;
17251;SDS011;8742;51.716;8.790;2022-10-31T09:11:59;28.97;;;18.10;;
17251;SDS011;8742;51.716;8.790;2022-10-31T09:14:27;33.77;;;19.37;;
17251;SDS011;8742;51.716;8.790;2022-10-31T09:16:54;31.67;;;18.53;;
17251;SDS011;8742;51.716;8.790;2022-10-31T09:19:20;41.63;;;18.30;;
17251;SDS011;8742;51.716;8.790;2022-10-31T09:21:47;28.70;;;18.10;;
17251;SDS011;8742;51.716;8.790;2022-10-31T09:24:17;32.03;;;18.33;;
17251;SDS011;8742;51.716;8.790;2022-10-31T09:26:44;38.40;;;17.67;;
17251;SDS011;8742;51.716;8.790;2022-10-31T09:29:11;31.00;;;17.37;;
17251;SDS011;8742;51.716;8.790;2022-10-31T09:31:39;32.70;;;17.20;;
17251;SDS011;8742;51.716;8.790;2022-10-31T09:34:06;36.43;;;17.90;;
17251;SDS011;8742;51.716;8.790;2022-10-31T09:36:32;33.10;;;17.00;;
17251;SDS011;8742;51.716;8.790;2022-10-31T09:38:59;33.07;;;17.10;;
17251;SDS011;8742;51.716;8.790;2022-10-31T09:41:28;32.87;;;16.30;;
17251;SDS011;8742;51.716;8.790;2022-10-31T09:44:02;31.67;;;17.17;;
17251;SDS011;8742;51.716;8.790;2022-10-31T09:46:40;36.33;;;18.77;;
17251;SDS011;8742;51.716;8.790;2022-10-31T09:49:20;27.73;;;16.63;;
17251;SDS011;8742;51.716;8.790;2022-10-31T09:52:00;30.00;;;16.50;;
17251;SDS011;8742;51.716;8.790;2022-10-31T09:54:32;28.40;;;17.83;;
17251;SDS011;8742;51.716;8.790;2022-10-31T09:57:04;30.73;;;18.07;;
17251;SDS011;8742;51.716;8.790;2022-10-31T09:59:36;45.03;;;19.33;;
17251;SDS011;8742;51.716;8.790;2022-10-31T10:02:10;35.97;;;19.30;;
17251;SDS011;8742;51.716;8.790;2022-10-31T10:04:44;44.10;;;19.97;;
17251;SDS011;8742;51.716;8.790;2022-10-31T10:07:20;39.07;;;19.00;;
17251;SDS011;8742;51.716;8.790;2022-10-31T10:09:52;37.67;;;18.60;;
17251;SDS011;8742;51.716;8.790;2022-10-31T10:12:36;35.00;;;19.03;;
17251;SDS011;8742;51.716;8.790;2022-10-31T10:15:32;36.07;;;18.13;;
17251;SDS011;8742;51.716;8.790;2022-10-31T10:18:07;39.83;;;20.33;;
17251;SDS011;8742;51.716;8.790;2022-10-31T10:20:45;32.00;;;18.73;;
17251;SDS011;8742;51.716;8.790;2022-10-31T10:23:34;33.87;;;18.67;;
17251;SDS011;8742;51.716;8.790;2022-10-31T10:26:10;34.43;;;17.93;;
17251;SDS011;8742;51.716;8.790;2022-10-31T10:28:43;36.97;;;19.33;;
17251;SDS011;8742;51.716;8.790;2022-10-31T10:31:13;40.00;;;20.53;;
17251;SDS011;8742;51.716;8.790;2022-10-31T10:33:44;38.87;;;18.50;;
17251;SDS011;8742;51.716;8.790;2022-10-31T10:36:21;32.57;;;17.77;;
17251;SDS011;8742;51.716;8.790;2022-10-31T10:38:54;35.17;;;20.00;;
17251;SDS011;8742;51.716;8.790;2022-10-31T10:41:26;28.20;;;17.30;;
17251;SDS011;8742;51.716;8.790;2022-10-31T10:43:56;30.70;;;17.90;;
17251;SDS011;8742;51.716;8.790;2022-10-31T10:46:23;32.10;;;16.83;;
17251;SDS011;8742;51.716;8.790;2022-10-31T10:49:16;29.10;;;17.10;;
17251;SDS011;8742;51.716;8.790;2022-10-31T10:51:46;30.40;;;16.67;;
17251;SDS011;8742;51.716;8.790;2022-10-31T10:54:33;29.97;;;15.33;;
17251;SDS011;8742;51.716;8.790;2022-10-31T10:57:18;26.90;;;15.17;;
17251;SDS011;8742;51.716;8.790;2022-10-31T11:00:19;27.97;;;13.70;;
17251;SDS011;8742;51.716;8.790;2022-10-31T11:02:47;24.10;;;14.37;;
17251;SDS011;8742;51.716;8.790;2022-10-31T11:05:18;25.43;;;14.43;;
17251;SDS011;8742;51.716;8.790;2022-10-31T11:07:49;28.43;;;13.53;;
17251;SDS011;8742;51.716;8.790;2022-10-31T11:10:16;29.20;;;13.23;;
17251;SDS011;8742;51.716;8.790;2022-10-31T11:12:44;20.17;;;10.93;;
17251;SDS011;8742;51.716;8.790;2022-10-31T11:15:24;28.08;;;11.35;;
17251;SDS011;8742;51.716;8.790;2022-10-31T11:17:52;16.42;;;9.55;;
17251;SDS011;8742;51.716;8.790;2022-10-31T11:20:29;16.48;;;9.50;;
17251;SDS011;8742;51.716;8.790;2022-10-31T11:23:04;14.48;;;8.00;;
17251;SDS011;8742;51.716;8.790;2022-10-31T11:25:47;22.27;;;9.05;;
17251;SDS011;8742;51.716;8.790;2022-10-31T11:28:15;14.30;;;7.30;;
17251;SDS011;8742;51.716;8.790;2022-10-31T11:30:43;13.93;;;6.70;;
17251;SDS011;8742;51.716;8.790;2022-10-31T11:33:17;15.27;;;6.57;;
17251;SDS011;8742;51.716;8.790;2022-10-31T11:35:48;19.23;;;6.88;;
17251;SDS011;8742;51.716;8.790;2022-10-31T11:38:17;21.27;;;6.38;;
17251;SDS011;8742;51.716;8.790;2022-10-31T11:40:51;15.88;;;6.28;;
17251;SDS011;8742;51.716;8.790;2022-10-31T11:43:20;11.23;;;6.25;;
17251;SDS011;8742;51.716;8.790;2022-10-31T11:45:48;15.90;;;6.40;;
17251;SDS011;8742;51.716;8.790;2022-10-31T11:48:15;12.85;;;6.63;;
17251;SDS011;8742;51.716;8.790;2022-10-31T11:50:48;10.63;;;6.22;;
17251;SDS011;8742;51.716;8.790;2022-10-31T11:53:18;13.30;;;6.60;;
17251;SDS011;8742;51.716;8.790;2022-10-31T11:55:59;15.32;;;6.95;;
17251;SDS011;8742;51.716;8.790;2022-10-31T11:58:30;15.52;;;6.97;;
17251;SDS011;8742;51.716;8.790;2022-10-31T12:00:57;14.00;;;6.60;;
17251;SDS011;8742;51.716;8.790;2022-10-31T12:03:32;30.40;;;9.50;;
17251;SDS011;8742;51.716;8.790;2022-10-31T12:06:07;14.77;;;6.23;;
17251;SDS011;8742;51.716;8.790;2022-10-31T12:08:37;16.02;;;7.78;;
17251;SDS011;8742;51.716;8.790;2022-10-31T12:11:08;22.70;;;9.55;;
17251;SDS011;8742;51.716;8.790;2022-10-31T12:13:40;16.15;;;7.32;;
17251;SDS011;8742;51.716;8.790;2022-10-31T12:16:18;15.88;;;7.30;;
17251;SDS011;8742;51.716;8.790;2022-10-31T12:18:52;23.38;;;8.45;;
17251;SDS011;8742;51.716;8.790;2022-10-31T12:21:32;15.82;;;7.22;;
17251;SDS011;8742;51.716;8.790;2022-10-31T12:24:13;17.27;;;6.78;;
17251;SDS011;8742;51.716;8.790;2022-10-31T12:26:50;14.13;;;7.93;;
17251;SDS011;8742;51.716;8.790;2022-10-31T12:29:29;16.70;;;8.37;;
17251;SDS011;8742;51.716;8.790;2022-10-31T12:32:08;16.85;;;7.85;;
17251;SDS011;8742;51.716;8.790;2022-10-31T12:34:52;20.90;;;8.55;;
17251;SDS011;8742;51.716;8.790;2022-10-31T12:37:38;16.35;;;8.23;;
17251;SDS011;8742;51.716;8.790;2022-10-31T12:40:21;18.33;;;8.53;;
17251;SDS011;8742;51.716;8.790;2022-10-31T12:43:14;17.58;;;8.35;;
17251;SDS011;8742;51.716;8.790;2022-10-31T12:45:51;16.87;;;9.30;;
17251;SDS011;8742;51.716;8.790;2022-10-31T12:51:24;18.30;;;8.60;;
17251;SDS011;8742;51.716;8.790;2022-10-31T12:54:05;14.93;;;8.70;;
17251;SDS011;8742;51.716;8.790;2022-10-31T12:56:50;18.47;;;9.30;;
17251;SDS011;8742;51.716;8.790;2022-10-31T12:59:24;17.17;;;8.97;;
17251;SDS011;8742;51.716;8.790;2022-10-31T13:01:58;17.43;;;8.97;;
17251;SDS011;8742;51.716;8.790;2022-10-31T13:04:35;19.63;;;9.00;;
17251;SDS011;8742;51.716;8.790;2022-10-31T13:07:09;20.90;;;9.97;;
17251;SDS011;8742;51.716;8.790;2022-10-31T13:09:47;20.87;;;9.93;;
17251;SDS011;8742;51.716;8.790;2022-10-31T13:12:20;19.23;;;9.63;;
17251;SDS011;8742;51.716;8.790;2022-10-31T13:14:49;19.33;;;9.60;;
17251;SDS011;8742;51.716;8.790;2022-10-31T13:17:21;16.63;;;8.90;;
17251;SDS011;8742;51.716;8.790;2022-10-31T13:19:53;22.60;;;9.63;;
17251;SDS011;8742;51.716;8.790;2022-10-31T13:22:29;19.53;;;8.73;;
17251;SDS011;8742;51.716;8.790;2022-10-31T13:25:03;19.53;;;9.77;;
17251;SDS011;8742;51.716;8.790;2022-10-31T13:27:45;19.27;;;9.43;;
17251;SDS011;8742;51.716;8.790;2022-10-31T13:30:16;20.73;;;9.53;;
17251;SDS011;8742;51.716;8.790;2022-10-31T13:32:47;18.03;;;9.80;;
17251;SDS011;8742;51.716;8.790;2022-10-31T13:35:20;24.17;;;9.83;;
17251;SDS011;8742;51.716;8.790;2022-10-31T13:37:56;17.37;;;9.70;;
17251;SDS011;8742;51.716;8.790;2022-10-31T13:40:38;24.47;;;10.30;;
17251;SDS011;8742;51.716;8.790;2022-10-31T13:43:11;19.67;;;8.87;;
17251;SDS011;8742;51.716;8.790;2022-10-31T13:45:50;19.80;;;9.13;;
17251;SDS011;8742;51.716;8.790;2022-10-31T13:48:19;20.50;;;9.43;;
17251;SDS011;8742;51.716;8.790;2022-10-31T13:51:01;22.83;;;10.30;;
17251;SDS011;8742;51.716;8.790;2022-10-31T13:53:37;16.97;;;9.17;;
17251;SDS011;8742;51.716;8.790;2022-10-31T13:56:13;27.60;;;9.50;;
17251;SDS011;8742;51.716;8.790;2022-10-31T13:58:59;23.30;;;9.87;;
17251;SDS011;8742;51.716;8.790;2022-10-31T14:01:29;15.90;;;9.20;;
17251;SDS011;8742;51.716;8.790;2022-10-31T14:04:13;25.83;;;8.80;;
17251;SDS011;8742;51.716;8.790;2022-10-31T14:06:51;19.57;;;8.77;;
17251;SDS011;8742;51.716;8.790;2022-10-31T14:09:24;27.40;;;9.13;;
17251;SDS011;8742;51.716;8.790;2022-10-31T14:11:55;18.37;;;9.33;;
17251;SDS011;8742;51.716;8.790;2022-10-31T14:14:43;16.63;;;9.57;;
17251;SDS011;8742;51.716;8.790;2022-10-31T14:17:33;19.97;;;11.23;;
17251;SDS011;8742;51.716;8.790;2022-10-31T14:20:22;26.50;;;10.97;;
17251;SDS011;8742;51.716;8.790;2022-10-31T14:23:34;25.07;;;11.13;;
17251;SDS011;8742;51.716;8.790;2022-10-31T14:26:17;25.00;;;11.13;;
17251;SDS011;8742;51.716;8.790;2022-10-31T14:29:03;21.87;;;10.60;;
17251;SDS011;8742;51.716;8.790;2022-10-31T14:31:55;19.27;;;10.60;;
17251;SDS011;8742;51.716;8.790;2022-10-31T14:34:26;21.67;;;10.70;;
17251;SDS011;8742;51.716;8.790;2022-10-31T14:37:12;19.70;;;9.80;;
17251;SDS011;8742;51.716;8.790;2022-10-31T14:40:11;16.60;;;9.97;;
17251;SDS011;8742;51.716;8.790;2022-10-31T14:46:14;17.67;;;9.37;;
17251;SDS011;8742;51.716;8.790;2022-10-31T14:48:54;18.00;;;10.07;;
17251;SDS011;8742;51.716;8.790;2022-10-31T14:52:04;23.73;;;10.43;;
17251;SDS011;8742;51.716;8.790;2022-10-31T14:54:38;19.30;;;10.13;;
17251;SDS011;8742;51.716;8.790;2022-10-31T14:57:13;22.17;;;10.03;;
17251;SDS011;8742;51.716;8.790;2022-10-31T15:02:57;24.83;;;9.93;;
17251;SDS011;8742;51.716;8.790;2022-10-31T15:05:32;22.33;;;9.90;;
17251;SDS011;8742;51.716;8.790;2022-10-31T15:08:51;18.47;;;10.07;;
17251;SDS011;8742;51.716;8.790;2022-10-31T15:17:57;21.93;;;9.80;;
17251;SDS011;8742;51.716;8.790;2022-10-31T15:20:51;16.43;;;9.20;;
17251;SDS011;8742;51.716;8.790;2022-10-31T15:23:21;20.90;;;9.80;;
17251;SDS011;8742;51.716;8.790;2022-10-31T15:25:49;15.57;;;8.80;;